createdAt,value
2023-08-14T00:04:36.730Z,19.10
2023-08-14T00:09:41.140Z,19.00
2023-08-14T00:14:44.596Z,19.00
2023-08-14T00:19:48.400Z,19.00
2023-08-14T00:24:52.637Z,18.90
2023-08-14T00:29:56.090Z,18.90
2023-08-14T00:35:00.098Z,18.90
2023-08-14T00:40:04.409Z,18.80
2023-08-14T00:45:08.515Z,18.70
2023-08-14T00:50:13.291Z,18.60
2023-08-14T00:55:22.889Z,18.50
2023-08-14T01:00:29.536Z,18.40
2023-08-14T01:05:33.974Z,18.40
2023-08-14T01:10:55.769Z,18.40
2023-08-14T01:16:02.892Z,18.30
2023-08-14T01:21:14.787Z,18.30
2023-08-14T01:26:18.614Z,18.30
2023-08-14T01:31:22.078Z,18.20
2023-08-14T01:36:39.359Z,18.20
2023-08-14T01:41:42.869Z,18.10
2023-08-14T01:46:48.343Z,18.00
2023-08-14T01:51:54.188Z,17.90
2023-08-14T01:56:58.545Z,17.90
2023-08-14T02:02:02.047Z,17.80
2023-08-14T02:07:07.197Z,17.80
2023-08-14T02:12:10.662Z,17.80
2023-08-14T02:17:14.233Z,17.80
2023-08-14T02:22:17.923Z,17.70
2023-08-14T02:27:21.573Z,17.50
2023-08-14T02:32:25.012Z,17.50
2023-08-14T02:37:28.774Z,17.50
2023-08-14T02:42:32.320Z,17.50
2023-08-14T02:47:35.807Z,17.40
2023-08-14T02:52:39.062Z,17.50
2023-08-14T02:57:42.585Z,17.40
2023-08-14T03:02:47.608Z,17.30
2023-08-14T03:07:51.423Z,17.30
2023-08-14T03:12:54.856Z,17.30
2023-08-14T03:17:58.716Z,17.20
2023-08-14T03:23:02.228Z,17.20
2023-08-14T03:28:06.179Z,17.10
2023-08-14T03:33:09.865Z,17.00
2023-08-14T03:38:13.285Z,17.00
2023-08-14T03:43:16.737Z,16.90
2023-08-14T03:48:20.230Z,16.90
2023-08-14T03:53:23.672Z,16.90
2023-08-14T03:58:27.194Z,16.90
2023-08-14T04:03:32.027Z,16.90
2023-08-14T04:08:35.721Z,17.00
2023-08-14T04:13:39.184Z,17.10
2023-08-14T04:18:42.618Z,17.10
2023-08-14T04:23:46.358Z,17.20
2023-08-14T04:28:50.255Z,17.30
2023-08-14T04:33:53.671Z,17.30
2023-08-14T04:38:57.153Z,17.40
2023-08-14T04:44:00.709Z,17.60
2023-08-14T04:49:04.919Z,17.70
2023-08-14T04:54:08.336Z,17.90
2023-08-14T04:59:11.745Z,18.10
2023-08-14T05:04:15.292Z,18.30
2023-08-14T05:09:26.447Z,18.40
2023-08-14T05:14:31.175Z,18.60
2023-08-14T05:19:34.658Z,18.80
2023-08-14T05:24:38.127Z,19.00
2023-08-14T05:29:41.570Z,19.30
2023-08-14T05:34:45.246Z,19.60
2023-08-14T05:39:48.421Z,19.80
2023-08-14T05:44:51.899Z,20.10
2023-08-14T05:49:55.329Z,20.40
2023-08-14T05:55:00.432Z,20.70
2023-08-14T06:00:05.048Z,20.90
2023-08-14T06:05:09.574Z,21.10
2023-08-14T06:10:13.219Z,21.20
2023-08-14T06:15:17.449Z,21.40
2023-08-14T06:20:21.594Z,21.60
2023-08-14T06:25:26.631Z,21.90
2023-08-14T06:30:31.071Z,22.10
2023-08-14T06:35:34.423Z,22.30
2023-08-14T06:40:37.816Z,22.50
2023-08-14T06:45:41.270Z,22.70
2023-08-14T06:50:44.859Z,22.90
2023-08-14T06:55:48.716Z,23.10
2023-08-14T07:00:51.985Z,23.20
2023-08-14T07:05:55.814Z,23.40
2023-08-14T07:10:59.705Z,23.70
2023-08-14T07:16:03.593Z,23.90
2023-08-14T07:21:09.045Z,24.10
2023-08-14T07:26:16.373Z,24.40
2023-08-14T07:31:19.833Z,24.50
2023-08-14T07:36:23.390Z,24.80
2023-08-14T07:41:26.806Z,25.10
2023-08-14T07:46:30.352Z,25.20
2023-08-14T07:51:33.868Z,25.40
2023-08-14T07:56:37.753Z,25.60
2023-08-14T08:01:42.588Z,25.70
2023-08-14T08:06:46.556Z,25.80
2023-08-14T08:11:50.218Z,26.10
2023-08-14T08:16:54.168Z,26.30
2023-08-14T08:21:57.618Z,26.50
2023-08-14T08:27:01.258Z,26.80
2023-08-14T08:32:05.280Z,26.90
2023-08-14T08:37:08.673Z,27.00
2023-08-14T08:42:13.008Z,27.20
2023-08-14T08:47:18.043Z,27.30
2023-08-14T08:52:22.433Z,27.50
2023-08-14T08:57:26.322Z,27.70
2023-08-14T09:02:29.920Z,28.00
2023-08-14T09:07:34.428Z,28.10
2023-08-14T09:12:37.924Z,28.30
2023-08-14T09:17:42.298Z,28.50
2023-08-14T09:22:45.957Z,28.70
2023-08-14T09:27:49.507Z,29.00
2023-08-14T09:32:53.178Z,29.20
2023-08-14T09:37:57.008Z,29.40
2023-08-14T09:43:01.754Z,29.60
2023-08-14T09:48:05.809Z,29.80
2023-08-14T09:53:10.019Z,30.00
2023-08-14T09:58:13.511Z,30.10
2023-08-14T10:03:18.002Z,30.30
2023-08-14T10:08:21.364Z,30.40
2023-08-14T10:13:26.576Z,30.50
2023-08-14T10:18:30.964Z,30.60
2023-08-14T10:23:35.592Z,30.60
2023-08-14T10:28:39.264Z,30.60
2023-08-14T10:33:43.066Z,30.80
2023-08-14T10:38:48.125Z,30.90
2023-08-14T10:43:51.849Z,31.30
2023-08-14T10:48:55.360Z,31.50
2023-08-14T10:54:16.145Z,31.80
2023-08-14T10:59:24.441Z,32.00
2023-08-14T11:04:28.404Z,32.10
2023-08-14T11:09:35.805Z,32.20
2023-08-14T11:14:41.480Z,32.30
2023-08-14T11:19:44.902Z,32.40
2023-08-14T11:24:50.397Z,32.30
2023-08-14T11:29:56.068Z,32.40
2023-08-14T11:35:01.632Z,32.40
2023-08-14T11:40:08.045Z,32.40
2023-08-14T11:45:12.004Z,32.30
2023-08-14T11:50:16.655Z,32.20
2023-08-14T11:55:20.265Z,32.40
2023-08-14T12:00:30.189Z,32.20
2023-08-14T12:05:37.181Z,32.40
2023-08-14T12:10:41.497Z,32.50
2023-08-14T12:15:47.635Z,32.60
2023-08-14T12:21:00.222Z,32.60
2023-08-14T12:26:08.226Z,32.60
2023-08-14T12:31:13.264Z,32.70
2023-08-14T12:36:16.698Z,32.80
2023-08-14T12:41:20.285Z,32.90
2023-08-14T12:46:23.776Z,32.90
2023-08-14T12:51:27.338Z,33.00
2023-08-14T12:56:31.647Z,33.10
2023-08-14T13:01:35.387Z,33.00
2023-08-14T13:06:39.163Z,33.20
2023-08-14T13:11:42.650Z,33.20
2023-08-14T13:16:46.108Z,33.50
2023-08-14T13:21:49.614Z,33.90
2023-08-14T13:26:53.256Z,34.20
2023-08-14T13:31:56.714Z,34.40
2023-08-14T13:37:00.114Z,34.60
2023-08-14T13:42:03.725Z,34.60
2023-08-14T13:47:07.436Z,34.60
2023-08-14T13:52:10.886Z,34.30
2023-08-14T13:57:14.354Z,34.20
2023-08-14T14:02:17.987Z,33.90
2023-08-14T14:07:24.680Z,33.60
2023-08-14T14:12:30.292Z,33.50
2023-08-14T14:17:33.698Z,33.70
2023-08-14T14:22:37.683Z,34.00
2023-08-14T14:27:41.271Z,34.30
2023-08-14T14:32:44.807Z,34.70
2023-08-14T14:37:48.451Z,35.30
2023-08-14T14:42:52.692Z,36.00
2023-08-14T14:47:56.339Z,36.50
2023-08-14T14:52:59.755Z,36.90
2023-08-14T14:58:03.277Z,37.10
2023-08-14T15:03:06.825Z,37.30
2023-08-14T15:08:10.332Z,37.60
2023-08-14T15:13:13.757Z,37.80
2023-08-14T15:18:17.617Z,38.10
2023-08-14T15:23:21.054Z,38.40
2023-08-14T15:28:25.935Z,38.50
2023-08-14T15:33:29.328Z,38.60
2023-08-14T15:38:32.778Z,38.50
2023-08-14T15:43:36.556Z,38.40
2023-08-14T15:48:41.254Z,38.20
2023-08-14T15:53:44.647Z,37.90
2023-08-14T15:58:48.094Z,37.70
2023-08-14T16:03:51.493Z,37.40
2023-08-14T16:08:56.353Z,37.10
2023-08-14T16:13:59.834Z,37.00
2023-08-14T16:19:03.490Z,36.80
2023-08-14T16:24:07.162Z,36.60
2023-08-14T16:29:12.074Z,36.50
2023-08-14T16:34:15.473Z,36.50
2023-08-14T16:39:19.685Z,36.30
2023-08-14T16:44:23.231Z,36.10
2023-08-14T16:49:27.497Z,35.80
2023-08-14T16:54:30.945Z,35.40
2023-08-14T16:59:34.342Z,34.90
2023-08-14T17:04:37.804Z,34.30
2023-08-14T17:09:41.169Z,33.60
2023-08-14T17:14:45.367Z,33.00
2023-08-14T17:19:49.157Z,32.30
2023-08-14T17:24:54.658Z,31.60
2023-08-14T17:29:58.780Z,30.90
2023-08-14T17:35:02.370Z,30.20
2023-08-14T17:40:07.971Z,29.60
2023-08-14T17:45:11.561Z,29.20
2023-08-14T17:50:15.065Z,28.80
2023-08-14T17:55:18.300Z,28.40
2023-08-14T18:00:21.790Z,28.00
2023-08-14T18:05:25.194Z,27.60
2023-08-14T18:10:28.645Z,27.30
2023-08-14T18:15:32.099Z,27.00
2023-08-14T18:20:35.624Z,26.70
2023-08-14T18:25:40.408Z,26.40
2023-08-14T18:30:43.855Z,26.10
2023-08-14T18:35:47.980Z,25.90
2023-08-14T18:40:51.402Z,25.80
2023-08-14T18:45:55.652Z,25.60
2023-08-14T18:50:59.238Z,25.50
2023-08-14T18:56:02.922Z,25.40
2023-08-14T19:01:06.323Z,25.10
2023-08-14T19:06:09.804Z,24.90
2023-08-14T19:11:13.209Z,24.80
2023-08-14T19:16:17.190Z,24.60
2023-08-14T19:21:23.753Z,24.40
2023-08-14T19:26:28.458Z,24.30
2023-08-14T19:31:32.310Z,24.20
2023-08-14T19:36:35.900Z,24.00
2023-08-14T19:41:39.269Z,23.90
2023-08-14T19:46:42.907Z,23.80
2023-08-14T19:51:46.246Z,23.70
2023-08-14T19:56:49.686Z,23.60
2023-08-14T20:01:55.251Z,23.40
2023-08-14T20:06:59.669Z,23.20
2023-08-14T20:12:04.709Z,23.10
2023-08-14T20:17:08.899Z,23.10
2023-08-14T20:22:12.373Z,22.90
2023-08-14T20:27:15.810Z,22.80
2023-08-14T20:32:20.409Z,22.60
2023-08-14T20:37:23.896Z,22.50
2023-08-14T20:42:27.398Z,22.50
2023-08-14T20:47:30.927Z,22.40
2023-08-14T20:52:34.385Z,22.40
2023-08-14T20:57:37.987Z,22.40
2023-08-14T21:02:41.445Z,22.30
2023-08-14T21:07:44.878Z,22.20
2023-08-14T21:12:48.293Z,22.20
2023-08-14T21:17:51.693Z,22.20
2023-08-14T21:22:55.148Z,22.20
2023-08-14T21:27:59.320Z,22.10
2023-08-14T21:33:03.215Z,22.00
2023-08-14T21:38:06.772Z,22.00
2023-08-14T21:43:10.315Z,22.00
2023-08-14T21:48:13.825Z,21.90
2023-08-14T21:53:19.838Z,21.80
2023-08-14T21:58:23.234Z,21.70
2023-08-14T22:03:26.775Z,21.60
2023-08-14T22:08:31.072Z,21.50
2023-08-14T22:13:35.225Z,21.50
2023-08-14T22:18:38.902Z,21.40
2023-08-14T22:23:43.062Z,21.30
2023-08-14T22:28:46.476Z,21.20
2023-08-14T22:33:50.107Z,21.10
2023-08-14T22:38:53.521Z,21.10
2023-08-14T22:43:56.936Z,21.00
2023-08-14T22:49:00.463Z,21.00
2023-08-14T22:54:04.224Z,20.90
2023-08-14T22:59:07.681Z,20.80
2023-08-14T23:04:11.116Z,20.70
2023-08-14T23:09:14.534Z,20.60
2023-08-14T23:14:17.952Z,20.60
2023-08-14T23:19:21.730Z,20.50
2023-08-14T23:24:25.478Z,20.50
2023-08-14T23:29:29.071Z,20.40
2023-08-14T23:34:32.490Z,20.30
2023-08-14T23:39:35.856Z,20.30
2023-08-14T23:44:39.387Z,20.20
2023-08-14T23:49:43.169Z,20.20
2023-08-14T23:54:46.830Z,20.20
2023-08-14T23:59:50.428Z,20.10
